sensor_id;sensor_type;location;lat;lon;timestamp;P1;durP1;ratioP1;P2;durP2;ratioP2
7585;SDS011;12459;42.646;23.292;2023-11-18T00:08:45;8.30;;;7.80;;
7585;SDS011;12459;42.646;23.292;2023-11-18T00:23:46;8.47;;;7.97;;
7585;SDS011;12459;42.646;23.292;2023-11-18T00:38:49;8.40;;;7.90;;
7585;SDS011;12459;42.646;23.292;2023-11-18T00:53:51;8.30;;;7.80;;
7585;SDS011;12459;42.646;23.292;2023-11-18T01:08:55;6.97;;;6.57;;
7585;SDS011;12459;42.646;23.292;2023-11-18T01:23:57;8.10;;;7.60;;
7585;SDS011;12459;42.646;23.292;2023-11-18T01:38:59;6.47;;;6.07;;
7585;SDS011;12459;42.646;23.292;2023-11-18T01:54:01;7.97;;;7.47;;
7585;SDS011;12459;42.646;23.292;2023-11-18T02:09:06;7.50;;;7.10;;
7585;SDS011;12459;42.646;23.292;2023-11-18T02:24:07;6.80;;;6.40;;
7585;SDS011;12459;42.646;23.292;2023-11-18T02:39:12;6.80;;;6.40;;
7585;SDS011;12459;42.646;23.292;2023-11-18T02:54:18;6.50;;;6.10;;
7585;SDS011;12459;42.646;23.292;2023-11-18T03:09:21;6.03;;;5.63;;
7585;SDS011;12459;42.646;23.292;2023-11-18T03:24:23;5.57;;;5.17;;
7585;SDS011;12459;42.646;23.292;2023-11-18T03:39:24;6.20;;;5.80;;
7585;SDS011;12459;42.646;23.292;2023-11-18T03:54:26;6.17;;;5.77;;
7585;SDS011;12459;42.646;23.292;2023-11-18T04:09:28;5.10;;;4.80;;
7585;SDS011;12459;42.646;23.292;2023-11-18T04:24:29;5.50;;;5.10;;
7585;SDS011;12459;42.646;23.292;2023-11-18T04:39:32;5.60;;;5.20;;
7585;SDS011;12459;42.646;23.292;2023-11-18T04:54:34;5.33;;;5.03;;
7585;SDS011;12459;42.646;23.292;2023-11-18T05:09:35;5.53;;;5.13;;
7585;SDS011;12459;42.646;23.292;2023-11-18T05:24:38;5.37;;;4.97;;
7585;SDS011;12459;42.646;23.292;2023-11-18T05:39:43;5.97;;;5.57;;
7585;SDS011;12459;42.646;23.292;2023-11-18T05:54:46;5.73;;;5.33;;
7585;SDS011;12459;42.646;23.292;2023-11-18T06:09:49;5.50;;;5.10;;
7585;SDS011;12459;42.646;23.292;2023-11-18T06:24:51;5.33;;;4.93;;
7585;SDS011;12459;42.646;23.292;2023-11-18T06:39:53;6.20;;;5.80;;
7585;SDS011;12459;42.646;23.292;2023-11-18T06:54:55;4.87;;;4.57;;
7585;SDS011;12459;42.646;23.292;2023-11-18T07:09:57;6.13;;;5.73;;
7585;SDS011;12459;42.646;23.292;2023-11-18T07:24:59;6.07;;;5.67;;
7585;SDS011;12459;42.646;23.292;2023-11-18T07:40:05;5.07;;;4.77;;
7585;SDS011;12459;42.646;23.292;2023-11-18T07:55:07;5.10;;;4.80;;
7585;SDS011;12459;42.646;23.292;2023-11-18T08:10:12;5.67;;;5.27;;
7585;SDS011;12459;42.646;23.292;2023-11-18T08:25:14;5.03;;;4.73;;
7585;SDS011;12459;42.646;23.292;2023-11-18T08:40:16;5.40;;;5.00;;
7585;SDS011;12459;42.646;23.292;2023-11-18T08:55:28;4.70;;;4.40;;
7585;SDS011;12459;42.646;23.292;2023-11-18T09:10:43;4.90;;;4.60;;
7585;SDS011;12459;42.646;23.292;2023-11-18T09:25:47;5.37;;;4.97;;
7585;SDS011;12459;42.646;23.292;2023-11-18T09:40:49;6.03;;;5.63;;
7585;SDS011;12459;42.646;23.292;2023-11-18T10:11:01;5.20;;;4.87;;
7585;SDS011;12459;42.646;23.292;2023-11-18T10:26:10;5.77;;;5.37;;
7585;SDS011;12459;42.646;23.292;2023-11-18T10:41:11;5.33;;;4.97;;
7585;SDS011;12459;42.646;23.292;2023-11-18T10:56:16;4.90;;;4.60;;
7585;SDS011;12459;42.646;23.292;2023-11-18T11:11:21;5.77;;;5.37;;
7585;SDS011;12459;42.646;23.292;2023-11-18T11:41:58;5.57;;;5.17;;
7585;SDS011;12459;42.646;23.292;2023-11-18T11:57:00;6.30;;;5.90;;
7585;SDS011;12459;42.646;23.292;2023-11-18T12:12:03;6.43;;;6.03;;
7585;SDS011;12459;42.646;23.292;2023-11-18T12:27:06;6.17;;;5.77;;
7585;SDS011;12459;42.646;23.292;2023-11-18T12:42:14;5.97;;;5.57;;
7585;SDS011;12459;42.646;23.292;2023-11-18T12:57:37;5.27;;;4.90;;
7585;SDS011;12459;42.646;23.292;2023-11-18T13:12:40;5.67;;;5.27;;
7585;SDS011;12459;42.646;23.292;2023-11-18T13:27:43;5.50;;;5.10;;
7585;SDS011;12459;42.646;23.292;2023-11-18T13:42:46;6.17;;;5.77;;
7585;SDS011;12459;42.646;23.292;2023-11-18T13:57:48;5.50;;;5.10;;
7585;SDS011;12459;42.646;23.292;2023-11-18T14:13:04;5.67;;;5.27;;
7585;SDS011;12459;42.646;23.292;2023-11-18T14:28:13;5.40;;;5.00;;
7585;SDS011;12459;42.646;23.292;2023-11-18T14:43:15;6.03;;;5.63;;
7585;SDS011;12459;42.646;23.292;2023-11-18T14:58:17;4.80;;;4.50;;
7585;SDS011;12459;42.646;23.292;2023-11-18T15:13:19;5.47;;;5.07;;
7585;SDS011;12459;42.646;23.292;2023-11-18T15:28:22;5.60;;;5.20;;
7585;SDS011;12459;42.646;23.292;2023-11-18T15:43:23;6.27;;;5.87;;
7585;SDS011;12459;42.646;23.292;2023-11-18T15:58:25;5.60;;;5.20;;
7585;SDS011;12459;42.646;23.292;2023-11-18T16:13:30;4.67;;;4.37;;
7585;SDS011;12459;42.646;23.292;2023-11-18T16:28:31;5.00;;;4.70;;
7585;SDS011;12459;42.646;23.292;2023-11-18T16:43:33;5.17;;;4.87;;
7585;SDS011;12459;42.646;23.292;2023-11-18T16:58:35;4.97;;;4.67;;
7585;SDS011;12459;42.646;23.292;2023-11-18T17:13:37;5.17;;;4.83;;
7585;SDS011;12459;42.646;23.292;2023-11-18T17:28:38;4.83;;;4.53;;
7585;SDS011;12459;42.646;23.292;2023-11-18T17:43:40;5.20;;;4.90;;
7585;SDS011;12459;42.646;23.292;2023-11-18T17:58:42;4.90;;;4.60;;
7585;SDS011;12459;42.646;23.292;2023-11-18T18:13:45;5.30;;;4.90;;
7585;SDS011;12459;42.646;23.292;2023-11-18T18:28:46;4.73;;;4.43;;
7585;SDS011;12459;42.646;23.292;2023-11-18T18:43:48;5.53;;;5.13;;
7585;SDS011;12459;42.646;23.292;2023-11-18T18:58:50;5.47;;;5.07;;
7585;SDS011;12459;42.646;23.292;2023-11-18T19:13:52;5.53;;;5.13;;
7585;SDS011;12459;42.646;23.292;2023-11-18T19:28:54;5.07;;;4.77;;
7585;SDS011;12459;42.646;23.292;2023-11-18T19:43:55;5.47;;;5.07;;
7585;SDS011;12459;42.646;23.292;2023-11-18T19:58:59;5.40;;;5.00;;
7585;SDS011;12459;42.646;23.292;2023-11-18T20:14:01;4.67;;;4.37;;
7585;SDS011;12459;42.646;23.292;2023-11-18T20:29:03;5.23;;;4.90;;
7585;SDS011;12459;42.646;23.292;2023-11-18T20:44:05;5.50;;;5.10;;
7585;SDS011;12459;42.646;23.292;2023-11-18T20:59:08;4.50;;;4.20;;
7585;SDS011;12459;42.646;23.292;2023-11-18T21:14:09;4.90;;;4.60;;
7585;SDS011;12459;42.646;23.292;2023-11-18T21:29:11;5.07;;;4.77;;
7585;SDS011;12459;42.646;23.292;2023-11-18T21:44:13;5.10;;;4.80;;
7585;SDS011;12459;42.646;23.292;2023-11-18T21:59:15;5.80;;;5.40;;
7585;SDS011;12459;42.646;23.292;2023-11-18T22:14:17;4.87;;;4.57;;
7585;SDS011;12459;42.646;23.292;2023-11-18T22:29:18;5.20;;;4.90;;
7585;SDS011;12459;42.646;23.292;2023-11-18T22:44:22;4.87;;;4.57;;
7585;SDS011;12459;42.646;23.292;2023-11-18T22:59:24;5.60;;;5.20;;
7585;SDS011;12459;42.646;23.292;2023-11-18T23:14:26;5.47;;;5.07;;
7585;SDS011;12459;42.646;23.292;2023-11-18T23:29:29;5.23;;;4.90;;
7585;SDS011;12459;42.646;23.292;2023-11-18T23:44:31;4.83;;;4.53;;
7585;SDS011;12459;42.646;23.292;2023-11-18T23:59:35;4.67;;;4.37;;
